sensor_id;sensor_type;location;lat;lon;timestamp;pressure;altitude;pressure_sealevel;temperature;humidity
64200;BME280;50516;52.272;5.136;2023-10-19T00:00:30;99243.19;;;10.89;100.00
64200;BME280;50516;52.272;5.136;2023-10-19T00:02:58;99238.88;;;10.96;100.00
64200;BME280;50516;52.272;5.136;2023-10-19T00:05:26;99231.91;;;10.99;100.00
64200;BME280;50516;52.272;5.136;2023-10-19T00:07:51;99241.94;;;10.95;100.00
64200;BME280;50516;52.272;5.136;2023-10-19T00:10:18;99223.50;;;10.95;100.00
64200;BME280;50516;52.272;5.136;2023-10-19T00:12:43;99227.91;;;11.05;100.00
64200;BME280;50516;52.272;5.136;2023-10-19T00:15:10;99227.28;;;11.08;100.00
64200;BME280;50516;52.272;5.136;2023-10-19T00:17:36;99227.16;;;11.13;100.00
64200;BME280;50516;52.272;5.136;2023-10-19T00:20:05;99223.16;;;11.20;100.00
64200;BME280;50516;52.272;5.136;2023-10-19T00:22:49;99204.41;;;11.22;100.00
64200;BME280;50516;52.272;5.136;2023-10-19T00:25:17;99211.03;;;11.21;100.00
64200;BME280;50516;52.272;5.136;2023-10-19T00:27:43;99208.41;;;11.15;100.00
64200;BME280;50516;52.272;5.136;2023-10-19T00:30:13;99217.16;;;11.18;100.00
64200;BME280;50516;52.272;5.136;2023-10-19T00:32:43;99216.56;;;11.29;100.00
64200;BME280;50516;52.272;5.136;2023-10-19T00:35:08;99211.41;;;11.37;100.00
64200;BME280;50516;52.272;5.136;2023-10-19T00:37:53;99206.28;;;11.44;100.00
64200;BME280;50516;52.272;5.136;2023-10-19T00:40:20;99204.50;;;11.48;100.00
64200;BME280;50516;52.272;5.136;2023-10-19T00:43:02;99207.56;;;11.46;100.00
64200;BME280;50516;52.272;5.136;2023-10-19T00:45:32;99200.94;;;11.39;100.00
64200;BME280;50516;52.272;5.136;2023-10-19T00:47:59;99201.72;;;11.39;100.00
64200;BME280;50516;52.272;5.136;2023-10-19T00:50:24;99197.66;;;11.37;100.00
64200;BME280;50516;52.272;5.136;2023-10-19T00:52:52;99193.31;;;11.36;100.00
64200;BME280;50516;52.272;5.136;2023-10-19T00:55:18;99192.69;;;11.47;100.00
64200;BME280;50516;52.272;5.136;2023-10-19T00:57:47;99189.31;;;11.50;100.00
64200;BME280;50516;52.272;5.136;2023-10-19T01:00:14;99192.22;;;11.54;100.00
64200;BME280;50516;52.272;5.136;2023-10-19T01:02:57;99189.31;;;11.59;100.00
64200;BME280;50516;52.272;5.136;2023-10-19T01:05:25;99186.25;;;11.61;100.00
64200;BME280;50516;52.272;5.136;2023-10-19T01:07:57;99187.25;;;11.65;100.00
64200;BME280;50516;52.272;5.136;2023-10-19T01:10:23;99184.03;;;11.63;100.00
64200;BME280;50516;52.272;5.136;2023-10-19T01:12:49;99190.31;;;11.55;100.00
64200;BME280;50516;52.272;5.136;2023-10-19T01:15:22;99184.66;;;11.68;100.00
64200;BME280;50516;52.272;5.136;2023-10-19T01:17:57;99185.63;;;11.64;100.00
64200;BME280;50516;52.272;5.136;2023-10-19T01:20:27;99177.06;;;11.65;100.00
64200;BME280;50516;52.272;5.136;2023-10-19T01:23:00;99178.84;;;11.70;100.00
64200;BME280;50516;52.272;5.136;2023-10-19T01:28:09;99169.97;;;11.82;100.00
64200;BME280;50516;52.272;5.136;2023-10-19T01:30:36;99176.59;;;11.72;100.00
64200;BME280;50516;52.272;5.136;2023-10-19T01:33:03;99170.59;;;11.70;100.00
64200;BME280;50516;52.272;5.136;2023-10-19T01:35:30;99166.72;;;11.80;100.00
64200;BME280;50516;52.272;5.136;2023-10-19T01:38:15;99172.59;;;11.87;100.00
64200;BME280;50516;52.272;5.136;2023-10-19T01:40:40;99168.88;;;11.92;100.00
64200;BME280;50516;52.272;5.136;2023-10-19T01:43:12;99164.19;;;11.92;100.00
64200;BME280;50516;52.272;5.136;2023-10-19T01:45:45;99160.28;;;11.93;100.00
64200;BME280;50516;52.272;5.136;2023-10-19T01:48:11;99153.50;;;11.99;100.00
64200;BME280;50516;52.272;5.136;2023-10-19T01:50:38;99156.41;;;12.03;100.00
64200;BME280;50516;52.272;5.136;2023-10-19T01:53:04;99159.84;;;12.09;100.00
64200;BME280;50516;52.272;5.136;2023-10-19T01:55:38;99162.91;;;12.16;100.00
64200;BME280;50516;52.272;5.136;2023-10-19T01:58:03;99151.75;;;12.21;100.00
64200;BME280;50516;52.272;5.136;2023-10-19T02:00:29;99159.69;;;12.22;100.00
64200;BME280;50516;52.272;5.136;2023-10-19T02:02:55;99150.59;;;12.22;100.00
64200;BME280;50516;52.272;5.136;2023-10-19T02:05:21;99158.53;;;12.23;100.00
64200;BME280;50516;52.272;5.136;2023-10-19T02:07:49;99152.72;;;12.34;100.00
64200;BME280;50516;52.272;5.136;2023-10-19T02:10:14;99137.16;;;12.38;100.00
64200;BME280;50516;52.272;5.136;2023-10-19T02:12:41;99150.09;;;12.37;100.00
64200;BME280;50516;52.272;5.136;2023-10-19T02:15:08;99144.59;;;12.37;100.00
64200;BME280;50516;52.272;5.136;2023-10-19T02:17:33;99142.66;;;12.38;100.00
64200;BME280;50516;52.272;5.136;2023-10-19T02:19:59;99139.91;;;12.47;100.00
64200;BME280;50516;52.272;5.136;2023-10-19T02:22:27;99154.13;;;12.49;100.00
64200;BME280;50516;52.272;5.136;2023-10-19T02:24:53;99146.69;;;12.49;100.00
64200;BME280;50516;52.272;5.136;2023-10-19T02:27:19;99145.38;;;12.55;100.00
64200;BME280;50516;52.272;5.136;2023-10-19T02:29:44;99147.47;;;12.58;100.00
64200;BME280;50516;52.272;5.136;2023-10-19T02:32:11;99144.91;;;12.53;100.00
64200;BME280;50516;52.272;5.136;2023-10-19T02:34:37;99150.06;;;12.64;100.00
64200;BME280;50516;52.272;5.136;2023-10-19T02:37:02;99142.44;;;12.69;100.00
64200;BME280;50516;52.272;5.136;2023-10-19T02:39:27;99140.81;;;12.68;100.00
64200;BME280;50516;52.272;5.136;2023-10-19T02:41:56;99131.91;;;12.71;100.00
64200;BME280;50516;52.272;5.136;2023-10-19T02:44:21;99136.44;;;12.76;100.00
64200;BME280;50516;52.272;5.136;2023-10-19T02:49:17;99140.78;;;12.77;100.00
64200;BME280;50516;52.272;5.136;2023-10-19T02:51:46;99130.88;;;12.85;100.00
64200;BME280;50516;52.272;5.136;2023-10-19T02:54:14;99128.25;;;12.88;100.00
64200;BME280;50516;52.272;5.136;2023-10-19T02:56:47;99127.47;;;12.88;100.00
64200;BME280;50516;52.272;5.136;2023-10-19T02:59:15;99124.38;;;12.89;100.00
64200;BME280;50516;52.272;5.136;2023-10-19T03:01:54;99125.31;;;12.93;100.00
64200;BME280;50516;52.272;5.136;2023-10-19T03:04:26;99116.38;;;13.05;100.00
64200;BME280;50516;52.272;5.136;2023-10-19T03:06:53;99120.59;;;13.03;100.00
64200;BME280;50516;52.272;5.136;2023-10-19T03:09:21;99122.69;;;13.06;100.00
64200;BME280;50516;52.272;5.136;2023-10-19T03:11:53;99115.38;;;13.10;100.00
64200;BME280;50516;52.272;5.136;2023-10-19T03:14:20;99123.66;;;13.10;100.00
64200;BME280;50516;52.272;5.136;2023-10-19T03:16:45;99127.34;;;13.14;100.00
64200;BME280;50516;52.272;5.136;2023-10-19T03:19:11;99119.41;;;13.12;100.00
64200;BME280;50516;52.272;5.136;2023-10-19T03:21:38;99118.09;;;13.19;100.00
64200;BME280;50516;52.272;5.136;2023-10-19T03:24:08;99125.56;;;13.18;100.00
64200;BME280;50516;52.272;5.136;2023-10-19T03:27:11;99124.91;;;13.21;100.00
64200;BME280;50516;52.272;5.136;2023-10-19T03:29:50;99124.91;;;13.21;100.00
64200;BME280;50516;52.272;5.136;2023-10-19T03:32:25;99121.66;;;13.19;100.00
64200;BME280;50516;52.272;5.136;2023-10-19T03:34:57;99118.72;;;13.24;100.00
64200;BME280;50516;52.272;5.136;2023-10-19T03:37:26;99121.81;;;13.23;100.00
64200;BME280;50516;52.272;5.136;2023-10-19T03:39:55;99112.88;;;13.26;100.00
64200;BME280;50516;52.272;5.136;2023-10-19T03:42:24;99111.72;;;13.27;100.00
64200;BME280;50516;52.272;5.136;2023-10-19T03:44:53;99112.38;;;13.32;100.00
64200;BME280;50516;52.272;5.136;2023-10-19T03:47:19;99106.34;;;13.30;100.00
64200;BME280;50516;52.272;5.136;2023-10-19T03:50:04;99104.75;;;13.29;100.00
64200;BME280;50516;52.272;5.136;2023-10-19T03:52:35;99103.25;;;13.32;100.00
64200;BME280;50516;52.272;5.136;2023-10-19T03:55:03;99103.25;;;13.32;100.00
64200;BME280;50516;52.272;5.136;2023-10-19T03:57:36;99101.16;;;13.38;100.00
64200;BME280;50516;52.272;5.136;2023-10-19T04:00:07;99096.78;;;13.37;100.00
64200;BME280;50516;52.272;5.136;2023-10-19T04:02:36;99091.94;;;13.33;100.00
64200;BME280;50516;52.272;5.136;2023-10-19T04:05:03;99094.84;;;13.37;100.00
64200;BME280;50516;52.272;5.136;2023-10-19T04:07:29;99087.03;;;13.39;100.00
64200;BME280;50516;52.272;5.136;2023-10-19T04:09:57;99092.09;;;13.37;100.00
64200;BME280;50516;52.272;5.136;2023-10-19T04:12:26;99101.97;;;13.38;100.00
64200;BME280;50516;52.272;5.136;2023-10-19T04:14:55;99102.09;;;13.42;100.00
64200;BME280;50516;52.272;5.136;2023-10-19T04:17:34;99096.44;;;13.38;100.00
64200;BME280;50516;52.272;5.136;2023-10-19T04:20:01;99096.31;;;13.35;100.00
64200;BME280;50516;52.272;5.136;2023-10-19T04:22:34;99090.13;;;13.29;100.00
64200;BME280;50516;52.272;5.136;2023-10-19T04:25:00;99088.38;;;13.33;100.00
64200;BME280;50516;52.272;5.136;2023-10-19T04:27:26;99098.59;;;13.32;100.00
64200;BME280;50516;52.272;5.136;2023-10-19T04:29:52;99100.84;;;13.30;100.00
64200;BME280;50516;52.272;5.136;2023-10-19T04:32:17;99101.84;;;13.26;100.00
64200;BME280;50516;52.272;5.136;2023-10-19T04:34:50;99104.28;;;13.27;100.00
64200;BME280;50516;52.272;5.136;2023-10-19T04:37:15;99096.81;;;13.28;100.00
64200;BME280;50516;52.272;5.136;2023-10-19T04:39:43;99112.56;;;13.27;100.00
64200;BME280;50516;52.272;5.136;2023-10-19T04:42:09;99099.75;;;13.23;100.00
64200;BME280;50516;52.272;5.136;2023-10-19T04:44:34;99098.28;;;13.25;100.00
64200;BME280;50516;52.272;5.136;2023-10-19T04:47:00;99089.00;;;13.30;100.00
64200;BME280;50516;52.272;5.136;2023-10-19T04:49:25;99093.25;;;13.27;100.00
64200;BME280;50516;52.272;5.136;2023-10-19T04:51:50;99096.69;;;13.24;100.00
64200;BME280;50516;52.272;5.136;2023-10-19T04:54:16;99096.16;;;13.31;100.00
64200;BME280;50516;52.272;5.136;2023-10-19T04:56:44;99087.25;;;13.25;100.00
64200;BME280;50516;52.272;5.136;2023-10-19T04:59:09;99097.81;;;13.23;100.00
64200;BME280;50516;52.272;5.136;2023-10-19T05:01:35;99102.47;;;13.31;100.00
64200;BME280;50516;52.272;5.136;2023-10-19T05:04:00;99106.34;;;13.30;100.00
64200;BME280;50516;52.272;5.136;2023-10-19T05:06:26;99101.16;;;13.29;100.00
64200;BME280;50516;52.272;5.136;2023-10-19T05:08:51;99103.44;;;13.36;100.00
64200;BME280;50516;52.272;5.136;2023-10-19T05:11:20;99105.53;;;13.30;100.00
64200;BME280;50516;52.272;5.136;2023-10-19T05:13:48;99113.47;;;13.31;100.00
64200;BME280;50516;52.272;5.136;2023-10-19T05:16:13;99104.59;;;13.35;100.00
64200;BME280;50516;52.272;5.136;2023-10-19T05:18:39;99098.75;;;13.36;100.00
64200;BME280;50516;52.272;5.136;2023-10-19T05:21:04;99113.63;;;13.44;100.00
64200;BME280;50516;52.272;5.136;2023-10-19T05:23:30;99120.13;;;13.39;100.00
64200;BME280;50516;52.272;5.136;2023-10-19T05:26:05;99112.66;;;13.40;100.00
64200;BME280;50516;52.272;5.136;2023-10-19T05:28:32;99124.34;;;13.37;100.00
64200;BME280;50516;52.272;5.136;2023-10-19T05:30:58;99122.69;;;13.44;100.00
64200;BME280;50516;52.272;5.136;2023-10-19T05:33:29;99119.59;;;13.46;100.00
64200;BME280;50516;52.272;5.136;2023-10-19T05:35:55;99117.84;;;13.41;100.00
64200;BME280;50516;52.272;5.136;2023-10-19T05:38:21;99128.81;;;13.50;100.00
64200;BME280;50516;52.272;5.136;2023-10-19T05:40:47;99126.53;;;13.52;100.00
64200;BME280;50516;52.272;5.136;2023-10-19T05:43:15;99120.56;;;13.50;100.00
64200;BME280;50516;52.272;5.136;2023-10-19T05:45:41;99127.00;;;13.54;100.00
64200;BME280;50516;52.272;5.136;2023-10-19T05:48:06;99133.66;;;13.53;100.00
64200;BME280;50516;52.272;5.136;2023-10-19T05:50:33;99134.41;;;13.62;100.00
64200;BME280;50516;52.272;5.136;2023-10-19T05:52:59;99137.81;;;13.59;100.00
64200;BME280;50516;52.272;5.136;2023-10-19T05:55:25;99137.03;;;13.59;100.00
64200;BME280;50516;52.272;5.136;2023-10-19T05:57:51;99137.03;;;13.59;100.00
64200;BME280;50516;52.272;5.136;2023-10-19T06:00:16;99130.72;;;13.58;100.00
64200;BME280;50516;52.272;5.136;2023-10-19T06:02:44;99139.91;;;13.62;100.00
64200;BME280;50516;52.272;5.136;2023-10-19T06:05:11;99135.19;;;13.63;100.00
64200;BME280;50516;52.272;5.136;2023-10-19T06:07:36;99144.91;;;13.69;100.00
64200;BME280;50516;52.272;5.136;2023-10-19T06:10:03;99150.28;;;13.65;100.00
64200;BME280;50516;52.272;5.136;2023-10-19T06:12:31;99143.00;;;13.61;100.00
64200;BME280;50516;52.272;5.136;2023-10-19T06:14:57;99146.59;;;13.61;100.00
64200;BME280;50516;52.272;5.136;2023-10-19T06:17:22;99144.09;;;13.68;100.00
64200;BME280;50516;52.272;5.136;2023-10-19T06:19:48;99146.41;;;13.66;100.00
64200;BME280;50516;52.272;5.136;2023-10-19T06:22:14;99144.56;;;13.70;100.00
64200;BME280;50516;52.272;5.136;2023-10-19T06:24:41;99142.31;;;13.73;100.00
64200;BME280;50516;52.272;5.136;2023-10-19T06:27:06;99142.78;;;13.75;100.00
64200;BME280;50516;52.272;5.136;2023-10-19T06:29:32;99136.59;;;13.78;100.00
64200;BME280;50516;52.272;5.136;2023-10-19T06:31:57;99144.84;;;13.78;100.00
64200;BME280;50516;52.272;5.136;2023-10-19T06:34:22;99141.44;;;13.81;100.00
64200;BME280;50516;52.272;5.136;2023-10-19T06:36:48;99145.31;;;13.80;100.00
64200;BME280;50516;52.272;5.136;2023-10-19T06:39:13;99151.81;;;13.84;100.00
64200;BME280;50516;52.272;5.136;2023-10-19T06:41:39;99153.41;;;13.85;100.00
64200;BME280;50516;52.272;5.136;2023-10-19T06:44:04;99147.22;;;13.88;100.00
64200;BME280;50516;52.272;5.136;2023-10-19T06:46:31;99148.22;;;13.83;100.00
64200;BME280;50516;52.272;5.136;2023-10-19T06:48:56;99151.31;;;13.82;100.00
64200;BME280;50516;52.272;5.136;2023-10-19T06:51:26;99148.00;;;13.88;100.00
64200;BME280;50516;52.272;5.136;2023-10-19T06:53:54;99151.81;;;13.84;100.00
64200;BME280;50516;52.272;5.136;2023-10-19T06:56:20;99161.41;;;13.78;100.00
64200;BME280;50516;52.272;5.136;2023-10-19T06:58:46;99160.06;;;13.84;100.00
64200;BME280;50516;52.272;5.136;2023-10-19T07:01:11;99174.22;;;13.82;100.00
64200;BME280;50516;52.272;5.136;2023-10-19T07:03:38;99181.94;;;13.89;100.00
64200;BME280;50516;52.272;5.136;2023-10-19T07:06:03;99175.59;;;13.88;100.00
64200;BME280;50516;52.272;5.136;2023-10-19T07:08:29;99184.63;;;13.98;100.00
64200;BME280;50516;52.272;5.136;2023-10-19T07:10:55;99185.28;;;13.95;100.00
64200;BME280;50516;52.272;5.136;2023-10-19T07:13:20;99182.06;;;13.93;100.00
64200;BME280;50516;52.272;5.136;2023-10-19T07:15:47;99185.28;;;13.95;100.00
64200;BME280;50516;52.272;5.136;2023-10-19T07:18:14;99186.59;;;13.97;100.00
64200;BME280;50516;52.272;5.136;2023-10-19T07:20:39;99190.28;;;14.01;100.00
64200;BME280;50516;52.272;5.136;2023-10-19T07:23:07;99185.84;;;14.09;100.00
64200;BME280;50516;52.272;5.136;2023-10-19T07:25:47;99184.22;;;14.08;100.00
64200;BME280;50516;52.272;5.136;2023-10-19T07:28:14;99185.19;;;14.12;100.00
64200;BME280;50516;52.272;5.136;2023-10-19T07:30:42;99186.94;;;14.17;100.00
64200;BME280;50516;52.272;5.136;2023-10-19T07:33:09;99192.78;;;14.15;100.00
64200;BME280;50516;52.272;5.136;2023-10-19T07:35:36;99188.69;;;14.21;100.00
64200;BME280;50516;52.272;5.136;2023-10-19T07:38:04;99203.41;;;14.25;100.00
64200;BME280;50516;52.272;5.136;2023-10-19T07:40:30;99195.78;;;14.22;100.00
64200;BME280;50516;52.272;5.136;2023-10-19T07:42:55;99204.41;;;14.21;100.00
64200;BME280;50516;52.272;5.136;2023-10-19T07:45:21;99200.66;;;14.25;100.00
64200;BME280;50516;52.272;5.136;2023-10-19T07:47:47;99202.75;;;14.29;100.00
64200;BME280;50516;52.272;5.136;2023-10-19T07:50:12;99198.97;;;14.33;100.00
64200;BME280;50516;52.272;5.136;2023-10-19T07:52:50;99199.63;;;14.30;100.00
64200;BME280;50516;52.272;5.136;2023-10-19T07:55:17;99203.34;;;14.34;100.00
64200;BME280;50516;52.272;5.136;2023-10-19T07:57:43;99198.97;;;14.33;100.00
64200;BME280;50516;52.272;5.136;2023-10-19T08:00:09;99206.69;;;14.40;100.00
64200;BME280;50516;52.272;5.136;2023-10-19T08:02:38;99205.09;;;14.39;100.00
64200;BME280;50516;52.272;5.136;2023-10-19T08:05:05;99198.09;;;14.41;100.00
64200;BME280;50516;52.272;5.136;2023-10-19T08:07:32;99192.69;;;14.45;100.00
64200;BME280;50516;52.272;5.136;2023-10-19T08:09:59;99197.69;;;14.52;100.00
64200;BME280;50516;52.272;5.136;2023-10-19T08:12:25;99197.47;;;14.57;100.00
64200;BME280;50516;52.272;5.136;2023-10-19T08:14:52;99213.09;;;14.53;100.00
64200;BME280;50516;52.272;5.136;2023-10-19T08:17:18;99203.31;;;14.55;100.00
64200;BME280;50516;52.272;5.136;2023-10-19T08:19:43;99202.03;;;14.53;100.00
64200;BME280;50516;52.272;5.136;2023-10-19T08:22:08;99199.41;;;14.56;100.00
64200;BME280;50516;52.272;5.136;2023-10-19T08:24:35;99205.09;;;14.60;100.00
64200;BME280;50516;52.272;5.136;2023-10-19T08:27:01;99205.81;;;14.69;100.00
64200;BME280;50516;52.272;5.136;2023-10-19T08:29:26;99199.50;;;14.69;100.00
64200;BME280;50516;52.272;5.136;2023-10-19T08:31:51;99201.56;;;14.72;100.00
64200;BME280;50516;52.272;5.136;2023-10-19T08:34:17;99208.38;;;14.74;100.00
64200;BME280;50516;52.272;5.136;2023-10-19T08:36:42;99208.84;;;14.76;100.00
64200;BME280;50516;52.272;5.136;2023-10-19T08:39:09;99214.16;;;14.82;100.00
64200;BME280;50516;52.272;5.136;2023-10-19T08:41:37;99198.72;;;14.81;100.00
64200;BME280;50516;52.272;5.136;2023-10-19T08:44:06;99213.59;;;14.88;100.00
64200;BME280;50516;52.272;5.136;2023-10-19T08:46:43;99207.16;;;14.96;100.00
64200;BME280;50516;52.272;5.136;2023-10-19T08:49:10;99195.81;;;15.10;100.00
64200;BME280;50516;52.272;5.136;2023-10-19T08:51:38;99203.16;;;15.06;100.00
64200;BME280;50516;52.272;5.136;2023-10-19T08:54:05;99199.25;;;15.07;100.00
64200;BME280;50516;52.272;5.136;2023-10-19T08:56:31;99193.25;;;15.18;100.00
64200;BME280;50516;52.272;5.136;2023-10-19T08:58:59;99187.50;;;15.23;100.00
64200;BME280;50516;52.272;5.136;2023-10-19T09:01:27;99192.59;;;15.33;100.00
64200;BME280;50516;52.272;5.136;2023-10-19T09:03:53;99191.66;;;15.29;100.00
64200;BME280;50516;52.272;5.136;2023-10-19T09:06:20;99194.91;;;15.31;100.00
64200;BME280;50516;52.272;5.136;2023-10-19T09:08:47;99186.38;;;15.36;100.00
64200;BME280;50516;52.272;5.136;2023-10-19T09:11:13;99179.25;;;15.47;100.00
64200;BME280;50516;52.272;5.136;2023-10-19T09:13:49;99180.38;;;15.59;100.00
64200;BME280;50516;52.272;5.136;2023-10-19T09:16:19;99176.44;;;15.72;100.00
64200;BME280;50516;52.272;5.136;2023-10-19T09:18:48;99188.34;;;15.85;100.00
64200;BME280;50516;52.272;5.136;2023-10-19T09:21:19;99181.03;;;16.05;100.00
64200;BME280;50516;52.272;5.136;2023-10-19T09:23:55;99179.25;;;16.25;100.00
64200;BME280;50516;52.272;5.136;2023-10-19T09:26:22;99180.91;;;16.42;100.00
64200;BME280;50516;52.272;5.136;2023-10-19T09:28:48;99183.44;;;16.47;100.00
64200;BME280;50516;52.272;5.136;2023-10-19T09:31:17;99188.72;;;16.52;100.00
64200;BME280;50516;52.272;5.136;2023-10-19T09:33:44;99182.28;;;16.48;100.00
64200;BME280;50516;52.272;5.136;2023-10-19T09:36:11;99184.00;;;16.53;100.00
64200;BME280;50516;52.272;5.136;2023-10-19T09:38:50;99191.66;;;16.72;100.00
64200;BME280;50516;52.272;5.136;2023-10-19T09:41:23;99179.50;;;16.76;100.00
64200;BME280;50516;52.272;5.136;2023-10-19T09:43:58;99184.03;;;16.69;100.00
64200;BME280;50516;52.272;5.136;2023-10-19T09:46:31;99171.88;;;16.73;100.00
64200;BME280;50516;52.272;5.136;2023-10-19T09:48:56;99170.47;;;16.79;100.00
64200;BME280;50516;52.272;5.136;2023-10-19T09:51:23;99171.03;;;16.85;100.00
64200;BME280;50516;52.272;5.136;2023-10-19T09:53:58;99165.94;;;16.87;100.00
64200;BME280;50516;52.272;5.136;2023-10-19T09:56:26;99160.03;;;16.89;100.00
64200;BME280;50516;52.272;5.136;2023-10-19T09:58:55;99161.03;;;16.96;100.00
64200;BME280;50516;52.272;5.136;2023-10-19T10:01:24;99163.81;;;16.96;100.00
64200;BME280;50516;52.272;5.136;2023-10-19T10:03:52;99171.41;;;17.00;100.00
64200;BME280;50516;52.272;5.136;2023-10-19T10:06:30;99153.09;;;17.27;100.00
64200;BME280;50516;52.272;5.136;2023-10-19T10:08:56;99160.59;;;17.10;100.00
64200;BME280;50516;52.272;5.136;2023-10-19T10:11:24;99154.94;;;17.07;100.00
64200;BME280;50516;52.272;5.136;2023-10-19T10:13:52;99163.47;;;17.14;100.00
64200;BME280;50516;52.272;5.136;2023-10-19T10:16:23;99155.22;;;17.18;100.00
64200;BME280;50516;52.272;5.136;2023-10-19T10:18:50;99159.19;;;17.01;100.00
64200;BME280;50516;52.272;5.136;2023-10-19T10:21:22;99151.84;;;16.92;100.00
64200;BME280;50516;52.272;5.136;2023-10-19T10:23:55;99155.41;;;16.93;100.00
64200;BME280;50516;52.272;5.136;2023-10-19T10:26:22;99158.09;;;16.89;100.00
64200;BME280;50516;52.272;5.136;2023-10-19T10:31:47;99156.25;;;16.81;100.00
64200;BME280;50516;52.272;5.136;2023-10-19T10:37:04;99152.50;;;16.73;100.00
64200;BME280;50516;52.272;5.136;2023-10-19T10:39:31;99150.13;;;16.59;100.00
64200;BME280;50516;52.272;5.136;2023-10-19T10:41:57;99141.38;;;16.57;100.00
64200;BME280;50516;52.272;5.136;2023-10-19T10:44:42;99137.91;;;16.60;100.00
64200;BME280;50516;52.272;5.136;2023-10-19T10:47:09;99136.28;;;16.59;100.00
64200;BME280;50516;52.272;5.136;2023-10-19T10:52:33;99144.50;;;16.56;100.00
64200;BME280;50516;52.272;5.136;2023-10-19T10:55:06;99140.00;;;16.51;100.00
64200;BME280;50516;52.272;5.136;2023-10-19T10:57:33;99139.66;;;16.53;100.00
64200;BME280;50516;52.272;5.136;2023-10-19T11:00:12;99136.63;;;16.58;100.00
64200;BME280;50516;52.272;5.136;2023-10-19T11:02:42;99125.28;;;16.63;100.00
64200;BME280;50516;52.272;5.136;2023-10-19T11:05:12;99112.69;;;16.66;100.00
64200;BME280;50516;52.272;5.136;2023-10-19T11:07:41;99111.38;;;16.75;100.00
64200;BME280;50516;52.272;5.136;2023-10-19T11:10:30;99115.25;;;17.03;100.00
64200;BME280;50516;52.272;5.136;2023-10-19T11:13:06;99126.84;;;17.24;100.00
64200;BME280;50516;52.272;5.136;2023-10-19T11:15:33;99122.84;;;17.38;100.00
64200;BME280;50516;52.272;5.136;2023-10-19T11:17:58;99119.97;;;17.69;100.00
64200;BME280;50516;52.272;5.136;2023-10-19T11:20:25;99120.72;;;17.86;100.00
64200;BME280;50516;52.272;5.136;2023-10-19T11:22:52;99118.25;;;17.81;100.00
64200;BME280;50516;52.272;5.136;2023-10-19T11:25:28;99122.25;;;17.64;100.00
64200;BME280;50516;52.272;5.136;2023-10-19T11:27:58;99123.69;;;17.58;100.00
64200;BME280;50516;52.272;5.136;2023-10-19T11:30:26;99120.94;;;17.42;100.00
64200;BME280;50516;52.272;5.136;2023-10-19T11:32:52;99119.88;;;17.30;100.00
64200;BME280;50516;52.272;5.136;2023-10-19T11:35:33;99122.56;;;17.43;100.00
64200;BME280;50516;52.272;5.136;2023-10-19T11:38:00;99122.59;;;17.62;100.00
64200;BME280;50516;52.272;5.136;2023-10-19T11:40:28;99127.72;;;17.60;100.00
64200;BME280;50516;52.272;5.136;2023-10-19T11:42:54;99128.09;;;17.59;100.00
64200;BME280;50516;52.272;5.136;2023-10-19T11:45:24;99128.22;;;17.66;100.00
64200;BME280;50516;52.272;5.136;2023-10-19T11:47:49;99118.06;;;17.54;100.00
64200;BME280;50516;52.272;5.136;2023-10-19T11:50:16;99119.66;;;17.55;100.00
64200;BME280;50516;52.272;5.136;2023-10-19T11:52:42;99111.69;;;17.53;100.00
64200;BME280;50516;52.272;5.136;2023-10-19T11:55:08;99100.03;;;17.64;100.00
64200;BME280;50516;52.272;5.136;2023-10-19T11:57:34;99101.88;;;17.76;100.00
64200;BME280;50516;52.272;5.136;2023-10-19T12:00:00;99098.28;;;17.91;100.00
64200;BME280;50516;52.272;5.136;2023-10-19T12:02:26;99096.72;;;18.13;100.00
64200;BME280;50516;52.272;5.136;2023-10-19T12:04:52;99097.84;;;18.28;100.00
64200;BME280;50516;52.272;5.136;2023-10-19T12:07:17;99094.25;;;18.28;100.00
64200;BME280;50516;52.272;5.136;2023-10-19T12:09:43;99087.00;;;18.23;100.00
64200;BME280;50516;52.272;5.136;2023-10-19T12:12:10;99083.72;;;18.17;100.00
64200;BME280;50516;52.272;5.136;2023-10-19T12:14:38;99082.03;;;18.13;100.00
64200;BME280;50516;52.272;5.136;2023-10-19T12:17:03;99085.72;;;18.17;100.00
64200;BME280;50516;52.272;5.136;2023-10-19T12:19:31;99087.59;;;18.13;100.00
64200;BME280;50516;52.272;5.136;2023-10-19T12:21:57;99077.53;;;18.04;100.00
64200;BME280;50516;52.272;5.136;2023-10-19T12:24:23;99069.13;;;18.01;100.00
64200;BME280;50516;52.272;5.136;2023-10-19T12:26:49;99082.06;;;17.93;100.00
64200;BME280;50516;52.272;5.136;2023-10-19T12:29:16;99075.59;;;17.89;100.00
64200;BME280;50516;52.272;5.136;2023-10-19T12:31:42;99071.94;;;17.85;100.00
64200;BME280;50516;52.272;5.136;2023-10-19T12:34:08;99066.94;;;17.75;100.00
64200;BME280;50516;52.272;5.136;2023-10-19T12:36:36;99060.25;;;17.76;100.00
64200;BME280;50516;52.272;5.136;2023-10-19T12:39:02;99058.06;;;17.65;100.00
64200;BME280;50516;52.272;5.136;2023-10-19T12:41:30;99063.25;;;17.67;100.00
64200;BME280;50516;52.272;5.136;2023-10-19T12:43:57;99052.63;;;17.73;100.00
64200;BME280;50516;52.272;5.136;2023-10-19T12:46:23;99053.53;;;17.77;100.00
64200;BME280;50516;52.272;5.136;2023-10-19T12:48:55;99056.75;;;17.79;100.00
64200;BME280;50516;52.272;5.136;2023-10-19T12:51:21;99048.13;;;17.84;100.00
64200;BME280;50516;52.272;5.136;2023-10-19T12:53:51;99054.38;;;17.81;100.00
64200;BME280;50516;52.272;5.136;2023-10-19T12:56:17;99052.06;;;17.83;100.00
64200;BME280;50516;52.272;5.136;2023-10-19T12:58:43;99040.09;;;17.79;100.00
64200;BME280;50516;52.272;5.136;2023-10-19T13:01:08;99041.97;;;17.75;100.00
64200;BME280;50516;52.272;5.136;2023-10-19T13:03:41;99038.56;;;17.81;100.00
64200;BME280;50516;52.272;5.136;2023-10-19T13:06:07;99039.06;;;17.67;100.00
64200;BME280;50516;52.272;5.136;2023-10-19T13:08:32;99033.72;;;17.59;100.00